createdAt,value
2023-04-15T00:00:39.324Z,25.0817
2023-04-15T00:01:43.276Z,25.1208
2023-04-15T00:02:47.318Z,25.0841
2023-04-15T00:03:51.460Z,25.0968
2023-04-15T00:04:55.711Z,25.1033
2023-04-15T00:05:59.577Z,25.0545
2023-04-15T00:07:03.699Z,25.0850
2023-04-15T00:08:07.584Z,25.0897
2023-04-15T00:09:11.469Z,25.0625
2023-04-15T00:10:15.365Z,25.0285
2023-04-15T00:11:19.269Z,25.0352
2023-04-15T00:12:23.155Z,25.0160
2023-04-15T00:13:27.055Z,25.0211
2023-04-15T00:14:31.170Z,25.0423
2023-04-15T00:15:35.064Z,25.0318
2023-04-15T00:16:39.072Z,25.0011
2023-04-15T00:17:43.015Z,25.0314
2023-04-15T00:18:46.914Z,25.0590
2023-04-15T00:19:50.783Z,25.0020
2023-04-15T00:20:54.692Z,24.9922
2023-04-15T00:21:58.816Z,25.0000
2023-04-15T00:23:02.684Z,24.9822
2023-04-15T00:24:06.557Z,24.9769
2023-04-15T00:25:10.479Z,24.9895
2023-04-15T00:26:14.377Z,24.9846
2023-04-15T00:27:18.255Z,24.9831
2023-04-15T00:28:22.141Z,24.9976
2023-04-15T00:29:26.051Z,24.9780
2023-04-15T00:30:29.959Z,24.9818
2023-04-15T00:31:33.972Z,24.9864
2023-04-15T00:32:37.926Z,24.9938
2023-04-15T00:33:41.783Z,25.0102
2023-04-15T00:34:45.924Z,24.9853
2023-04-15T00:35:49.805Z,24.9844
2023-04-15T00:36:53.933Z,24.9773
2023-04-15T00:37:57.809Z,24.9813
2023-04-15T00:39:01.843Z,24.9642
2023-04-15T00:40:05.821Z,24.9846
2023-04-15T00:41:09.705Z,24.9964
2023-04-15T00:42:13.605Z,25.0194
2023-04-15T00:43:17.487Z,25.0096
2023-04-15T00:44:21.608Z,25.0149
2023-04-15T00:45:25.470Z,24.9895
2023-04-15T00:46:29.381Z,24.9677
2023-04-15T00:47:33.276Z,24.9666
2023-04-15T00:48:37.167Z,24.9526
2023-04-15T00:49:41.044Z,24.9591
2023-04-15T00:50:44.968Z,24.9546
2023-04-15T00:51:48.839Z,24.9537
2023-04-15T00:52:52.753Z,24.9604
2023-04-15T00:53:56.627Z,24.9671
2023-04-15T00:55:00.775Z,24.9593
2023-04-15T00:56:04.681Z,24.9820
2023-04-15T00:57:08.561Z,24.9579
2023-04-15T00:58:12.464Z,24.9780
2023-04-15T00:59:16.342Z,24.9800
2023-04-15T01:00:20.250Z,24.9742
2023-04-15T01:01:24.466Z,24.9889
2023-04-15T01:02:28.519Z,25.0156
2023-04-15T01:03:32.652Z,25.0091
2023-04-15T01:04:36.848Z,24.9746
2023-04-15T01:05:40.758Z,24.9898
2023-04-15T01:06:41.199Z,24.9757
2023-04-15T01:07:45.073Z,24.9842
2023-04-15T01:08:48.956Z,25.0004
2023-04-15T01:09:52.841Z,24.9940
2023-04-15T01:10:56.736Z,25.0140
2023-04-15T01:12:00.624Z,25.0265
2023-04-15T01:13:04.535Z,25.0267
2023-04-15T01:14:08.418Z,25.0220
2023-04-15T01:15:12.333Z,25.0398
2023-04-15T01:16:16.269Z,25.0405
2023-04-15T01:17:20.191Z,25.0478
2023-04-15T01:18:24.052Z,25.0683
2023-04-15T01:19:27.952Z,25.0761
2023-04-15T01:20:31.833Z,25.0256
2023-04-15T01:21:35.979Z,24.9991
2023-04-15T01:22:39.867Z,25.0263
2023-04-15T01:23:43.759Z,25.0078
2023-04-15T01:24:47.649Z,25.0216
2023-04-15T01:25:51.543Z,25.0378
2023-04-15T01:26:55.447Z,25.0243
2023-04-15T01:27:59.337Z,25.0085
2023-04-15T01:29:03.241Z,25.0044
2023-04-15T01:30:07.116Z,25.0318
2023-04-15T01:31:11.089Z,25.0231
2023-04-15T01:32:15.007Z,25.0585
2023-04-15T01:33:18.889Z,25.0432
2023-04-15T01:34:22.783Z,25.0476
2023-04-15T01:35:26.664Z,25.0467
2023-04-15T01:36:30.573Z,25.0332
2023-04-15T01:37:34.697Z,25.0436
2023-04-15T01:38:38.587Z,25.0723
2023-04-15T01:39:42.478Z,25.1075
2023-04-15T01:40:46.382Z,25.0799
2023-04-15T01:41:50.491Z,25.1233
2023-04-15T01:42:54.401Z,25.1222
2023-04-15T01:43:58.278Z,25.1133
2023-04-15T01:45:02.200Z,25.0810
2023-04-15T01:46:06.070Z,25.1117
2023-04-15T01:47:10.191Z,25.0972
2023-04-15T01:48:14.092Z,25.0952
2023-04-15T01:49:17.985Z,25.0888
2023-04-15T01:50:21.888Z,25.1222
2023-04-15T01:51:25.761Z,25.1079
2023-04-15T01:52:29.903Z,25.0612
2023-04-15T01:53:33.786Z,25.1012
2023-04-15T01:54:37.714Z,25.0770
2023-04-15T01:55:41.589Z,25.0946
2023-04-15T01:56:41.927Z,25.0988
2023-04-15T01:57:45.818Z,25.1331
2023-04-15T01:58:49.726Z,25.1197
2023-04-15T01:59:53.612Z,25.1231
2023-04-15T02:00:57.586Z,25.1306
2023-04-15T02:02:01.462Z,25.1547
2023-04-15T02:03:05.577Z,25.1213
2023-04-15T02:04:05.822Z,25.0845
2023-04-15T02:06:14.427Z,25.1035
2023-04-15T02:07:18.590Z,25.1006
2023-04-15T02:08:23.007Z,25.1275
2023-04-15T02:09:26.912Z,25.1208
2023-04-15T02:10:31.687Z,25.0723
2023-04-15T02:11:35.568Z,25.0944
2023-04-15T02:12:39.454Z,25.1397
2023-04-15T02:13:43.373Z,25.0701
2023-04-15T02:14:47.262Z,25.0470
2023-04-15T02:15:51.150Z,25.0550
2023-04-15T02:16:55.287Z,25.0652
2023-04-15T02:17:59.204Z,25.0872
2023-04-15T02:19:03.399Z,25.0777
2023-04-15T02:20:07.247Z,25.0625
2023-04-15T02:21:11.110Z,25.0685
2023-04-15T02:22:14.993Z,25.1061
2023-04-15T02:23:18.891Z,25.0757
2023-04-15T02:24:22.807Z,25.0674
2023-04-15T02:25:26.689Z,25.0939
2023-04-15T02:26:30.600Z,25.0875
2023-04-15T02:27:34.508Z,25.1046
2023-04-15T02:28:38.421Z,25.0634
2023-04-15T02:29:42.303Z,25.1211
2023-04-15T02:30:46.189Z,25.1170
2023-04-15T02:31:50.125Z,25.1288
2023-04-15T02:32:54.058Z,25.0912
2023-04-15T02:33:57.948Z,25.1039
2023-04-15T02:35:01.854Z,25.0986
2023-04-15T02:36:05.736Z,25.1144
2023-04-15T02:37:06.147Z,25.1444
2023-04-15T02:38:10.031Z,25.1522
2023-04-15T02:39:13.917Z,25.1053
2023-04-15T02:40:17.805Z,25.1164
2023-04-15T02:41:21.705Z,25.1353
2023-04-15T02:42:25.614Z,25.1549
2023-04-15T02:43:29.501Z,25.1613
2023-04-15T02:44:33.627Z,25.1624
2023-04-15T02:45:37.563Z,25.1271
2023-04-15T02:46:41.691Z,25.1433
2023-04-15T02:47:45.590Z,25.1595
2023-04-15T02:48:49.463Z,25.1353
2023-04-15T02:49:53.350Z,25.1351
2023-04-15T02:50:57.230Z,25.1277
2023-04-15T02:52:01.149Z,25.1090
2023-04-15T02:53:05.026Z,25.1360
2023-04-15T02:54:08.929Z,25.1342
2023-04-15T02:55:12.866Z,25.1417
2023-04-15T02:56:16.713Z,25.1360
2023-04-15T02:57:20.621Z,25.1409
2023-04-15T02:58:24.507Z,25.1733
2023-04-15T02:59:28.735Z,25.1578
2023-04-15T03:00:32.636Z,25.1847
2023-04-15T03:01:36.796Z,25.1749
2023-04-15T03:02:40.737Z,25.1651
2023-04-15T03:03:44.742Z,25.1809
2023-04-15T03:04:48.710Z,25.1673
2023-04-15T03:05:52.618Z,25.1580
2023-04-15T03:06:56.478Z,25.1578
2023-04-15T03:08:00.379Z,25.1529
2023-04-15T03:09:04.278Z,25.1348
2023-04-15T03:10:08.156Z,25.0839
2023-04-15T03:11:12.062Z,25.1324
2023-04-15T03:12:15.945Z,25.1480
2023-04-15T03:13:19.846Z,25.1656
2023-04-15T03:14:23.716Z,25.1409
2023-04-15T03:15:27.668Z,25.0254
2023-04-15T03:16:31.535Z,24.9740
2023-04-15T03:17:35.453Z,24.9397
2023-04-15T03:18:39.319Z,24.9517
2023-04-15T03:19:43.232Z,24.9626
2023-04-15T03:20:47.184Z,24.9399
2023-04-15T03:21:51.030Z,24.9517
2023-04-15T03:22:54.921Z,24.9688
2023-04-15T03:23:58.815Z,24.9497
2023-04-15T03:25:02.710Z,24.9266
2023-04-15T03:26:06.810Z,24.9259
2023-04-15T03:27:10.710Z,24.9275
2023-04-15T03:28:14.614Z,24.9377
2023-04-15T03:29:14.979Z,24.9347
2023-04-15T03:30:18.875Z,24.9192
2023-04-15T03:31:23.062Z,24.9306
2023-04-15T03:32:27.005Z,24.9210
2023-04-15T03:33:30.842Z,24.9695
2023-04-15T03:34:34.948Z,24.9301
2023-04-15T03:35:38.836Z,24.9159
2023-04-15T03:36:42.723Z,24.9212
2023-04-15T03:37:46.597Z,24.9255
2023-04-15T03:38:50.522Z,24.9279
2023-04-15T03:39:54.400Z,24.9085
2023-04-15T03:40:58.274Z,24.9159
2023-04-15T03:42:02.337Z,24.9506
2023-04-15T03:43:06.225Z,24.9562
2023-04-15T03:44:10.498Z,24.9826
2023-04-15T03:45:14.403Z,24.9956
2023-04-15T03:46:18.330Z,24.9869
2023-04-15T03:47:22.223Z,24.9866
2023-04-15T03:48:26.087Z,24.9680
2023-04-15T03:49:30.282Z,24.9499
2023-04-15T03:50:34.170Z,24.9588
2023-04-15T03:51:38.043Z,25.0051
2023-04-15T03:52:41.958Z,24.9915
2023-04-15T03:53:45.860Z,24.9869
2023-04-15T03:54:49.749Z,24.9878
2023-04-15T03:55:53.644Z,24.9853
2023-04-15T03:56:57.528Z,25.0065
2023-04-15T03:58:01.431Z,25.0329
2023-04-15T03:59:05.336Z,25.0149
2023-04-15T04:00:09.240Z,25.0073
2023-04-15T04:01:13.144Z,25.0325
2023-04-15T04:02:17.121Z,25.0685
2023-04-15T04:03:21.235Z,25.1322
2023-04-15T04:04:25.406Z,25.0966
2023-04-15T04:05:29.280Z,25.0730
2023-04-15T04:06:33.189Z,25.0790
2023-04-15T04:07:37.065Z,25.0932
2023-04-15T04:08:40.937Z,25.1055
2023-04-15T04:09:46.630Z,25.1253
2023-04-15T04:10:45.768Z,25.0896
2023-04-15T04:11:50.412Z,25.0999
2023-04-15T04:12:54.306Z,25.1320
2023-04-15T04:13:58.187Z,25.1364
2023-04-15T04:15:02.082Z,25.1333
2023-04-15T04:16:02.301Z,25.0527
2023-04-15T04:17:06.368Z,25.0387
2023-04-15T04:18:10.289Z,25.1001
2023-04-15T04:19:14.387Z,25.1271
2023-04-15T04:20:18.260Z,25.1166
2023-04-15T04:21:22.154Z,25.1718
2023-04-15T04:22:26.039Z,25.2130
2023-04-15T04:23:29.948Z,25.2041
2023-04-15T04:24:34.053Z,25.2693
2023-04-15T04:25:37.955Z,25.2986
2023-04-15T04:26:42.055Z,25.2710
2023-04-15T04:27:45.996Z,25.2715
2023-04-15T04:28:49.870Z,25.2214
2023-04-15T04:29:53.769Z,25.2025
2023-04-15T04:30:57.659Z,25.2172
2023-04-15T04:32:01.611Z,25.2085
2023-04-15T04:33:05.583Z,25.2210
2023-04-15T04:34:09.706Z,25.2130
2023-04-15T04:35:13.596Z,25.2021
2023-04-15T04:36:17.463Z,25.2154
2023-04-15T04:37:21.362Z,25.2185
2023-04-15T04:38:25.277Z,25.2428
2023-04-15T04:39:29.373Z,25.2348
2023-04-15T04:40:33.264Z,25.2410
2023-04-15T04:41:37.131Z,25.2174
2023-04-15T04:42:41.082Z,25.2154
2023-04-15T04:43:45.189Z,25.1885
2023-04-15T04:44:49.058Z,25.1831
2023-04-15T04:45:52.969Z,25.1611
2023-04-15T04:46:57.050Z,25.1664
2023-04-15T04:48:01.042Z,25.1720
2023-04-15T04:49:05.084Z,25.1729
2023-04-15T04:50:09.001Z,25.1538
2023-04-15T04:51:12.881Z,25.1295
2023-04-15T04:52:16.783Z,25.1259
2023-04-15T04:53:20.670Z,25.1135
2023-04-15T04:54:24.584Z,25.1197
2023-04-15T04:55:28.474Z,25.1144
2023-04-15T04:56:32.358Z,25.0817
2023-04-15T04:57:36.257Z,25.0601
2023-04-15T04:58:36.628Z,25.0410
2023-04-15T04:59:40.529Z,25.0127
2023-04-15T05:00:44.422Z,25.0205
2023-04-15T05:01:48.431Z,25.0127
2023-04-15T05:02:52.609Z,25.0182
2023-04-15T05:03:56.656Z,25.0120
2023-04-15T05:05:00.641Z,24.9806
2023-04-15T05:06:04.521Z,24.9973
2023-04-15T05:07:08.457Z,24.9864
2023-04-15T05:08:12.348Z,24.9878
2023-04-15T05:09:16.428Z,25.0160
2023-04-15T05:10:20.327Z,25.0541
2023-04-15T05:11:24.220Z,25.0607
2023-04-15T05:12:28.101Z,25.0122
2023-04-15T05:13:31.977Z,25.0340
2023-04-15T05:14:35.886Z,25.0138
2023-04-15T05:15:39.879Z,25.0819
2023-04-15T05:16:43.787Z,25.1478
2023-04-15T05:17:47.750Z,25.1493
2023-04-15T05:18:51.611Z,25.1711
2023-04-15T05:19:55.522Z,25.1809
2023-04-15T05:20:59.427Z,25.2305
2023-04-15T05:22:03.306Z,25.2884
2023-04-15T05:23:07.183Z,25.2588
2023-04-15T05:24:11.077Z,25.1455
2023-04-15T05:25:14.988Z,25.0921
2023-04-15T05:26:19.146Z,25.1004
2023-04-15T05:27:23.045Z,25.0648
2023-04-15T05:28:27.183Z,25.0912
2023-04-15T05:29:31.073Z,25.1936
2023-04-15T05:30:34.975Z,25.2428
2023-04-15T05:31:38.896Z,25.2764
2023-04-15T05:32:42.777Z,25.2693
2023-04-15T05:33:46.659Z,25.2933
2023-04-15T05:34:50.559Z,25.3133
2023-04-15T05:35:54.450Z,25.3002
2023-04-15T05:36:58.363Z,25.3142
2023-04-15T05:38:02.243Z,25.2512
2023-04-15T05:39:06.155Z,25.2904
2023-04-15T05:40:10.048Z,25.3371
2023-04-15T05:41:13.913Z,25.3992
2023-04-15T05:42:17.841Z,25.4524
2023-04-15T05:43:23.268Z,25.4244
2023-04-15T05:44:27.174Z,25.3180
2023-04-15T05:45:31.058Z,25.2584
2023-04-15T05:46:35.233Z,25.2546
2023-04-15T05:47:39.154Z,25.2406
2023-04-15T05:48:43.024Z,25.2205
2023-04-15T05:49:46.916Z,25.2374
2023-04-15T05:50:50.823Z,25.2526
2023-04-15T05:51:54.736Z,25.1842
2023-04-15T05:52:58.642Z,25.1753
2023-04-15T05:54:02.747Z,25.1529
2023-04-15T05:55:06.621Z,25.1429
2023-04-15T05:56:10.754Z,25.1282
2023-04-15T05:57:14.638Z,25.1369
2023-04-15T05:58:18.532Z,25.1589
2023-04-15T05:59:22.412Z,25.2185
2023-04-15T06:00:26.293Z,25.2281
2023-04-15T06:01:30.190Z,25.2648
2023-04-15T06:02:34.126Z,25.3026
2023-04-15T06:03:38.181Z,25.3213
2023-04-15T06:04:42.116Z,25.3160
2023-04-15T06:05:45.999Z,25.3060
2023-04-15T06:06:49.910Z,25.3318
2023-04-15T06:07:53.817Z,25.3841
2023-04-15T06:08:57.720Z,25.3916
2023-04-15T06:10:01.648Z,25.3649
2023-04-15T06:11:05.755Z,25.3111
2023-04-15T06:12:09.641Z,25.2864
2023-04-15T06:13:13.858Z,25.2719
2023-04-15T06:14:17.742Z,25.2517
2023-04-15T06:15:21.641Z,25.2646
2023-04-15T06:16:25.576Z,25.2572
2023-04-15T06:17:29.436Z,25.2503
2023-04-15T06:18:33.316Z,25.2523
2023-04-15T06:19:37.215Z,25.2572
2023-04-15T06:20:41.102Z,25.2617
2023-04-15T06:21:45.016Z,25.2503
2023-04-15T06:22:48.891Z,25.2408
2023-04-15T06:23:53.023Z,25.2666
2023-04-15T06:24:56.899Z,25.2737
2023-04-15T06:26:01.116Z,25.2949
2023-04-15T06:27:05.031Z,25.3547
2023-04-15T06:28:08.917Z,25.3959
2023-04-15T06:29:12.822Z,25.4059
2023-04-15T06:30:16.703Z,25.4326
2023-04-15T06:31:17.129Z,25.4518
2023-04-15T06:32:21.050Z,25.4673
2023-04-15T06:33:24.937Z,25.5071
2023-04-15T06:34:28.807Z,25.5853
2023-04-15T06:35:32.719Z,25.6562
2023-04-15T06:36:36.605Z,25.6278
2023-04-15T06:37:40.521Z,25.5654
2023-04-15T06:38:44.393Z,25.5352
2023-04-15T06:39:48.319Z,25.4657
2023-04-15T06:40:52.401Z,25.4802
2023-04-15T06:41:56.302Z,25.4882
2023-04-15T06:43:00.179Z,25.4878
2023-04-15T06:44:04.301Z,25.4504
2023-04-15T06:45:08.205Z,25.4488
2023-04-15T06:46:12.118Z,25.4847
2023-04-15T06:47:16.071Z,25.4544
2023-04-15T06:48:19.962Z,25.4555
2023-04-15T06:49:23.833Z,25.4239
2023-04-15T06:50:27.750Z,25.4097
2023-04-15T06:51:31.628Z,25.4364
2023-04-15T06:52:35.531Z,25.4253
2023-04-15T06:53:39.412Z,25.4448
2023-04-15T06:54:43.292Z,25.4742
2023-04-15T06:55:47.173Z,25.4938
2023-04-15T06:56:51.078Z,25.4816
2023-04-15T06:57:54.988Z,25.5955
2023-04-15T06:58:58.900Z,25.5841
2023-04-15T07:00:02.750Z,25.5614
2023-04-15T07:01:06.725Z,25.5570
2023-04-15T07:02:10.670Z,25.5779
2023-04-15T07:03:14.642Z,25.5381
2023-04-15T07:04:18.588Z,25.5294
2023-04-15T07:05:22.456Z,25.5639
2023-04-15T07:06:26.340Z,25.5703
2023-04-15T07:07:30.245Z,25.5846
2023-04-15T07:08:34.165Z,25.6131
2023-04-15T07:09:38.082Z,25.5899
2023-04-15T07:10:42.210Z,25.5966
2023-04-15T07:11:46.123Z,25.6031
2023-04-15T07:12:50.016Z,25.6100
2023-04-15T07:13:53.921Z,25.6057
2023-04-15T07:14:57.805Z,25.5784
2023-04-15T07:16:01.919Z,25.6280
2023-04-15T07:17:05.861Z,25.5726
2023-04-15T07:18:10.029Z,25.5835
2023-04-15T07:19:13.906Z,25.5416
2023-04-15T07:20:17.809Z,25.6293
2023-04-15T07:21:21.721Z,25.6649
2023-04-15T07:22:25.600Z,25.6821
2023-04-15T07:23:29.516Z,25.6703
2023-04-15T07:24:33.376Z,25.6634
2023-04-15T07:25:37.490Z,25.6631
2023-04-15T07:26:41.377Z,25.6625
2023-04-15T07:27:45.277Z,25.6720
2023-04-15T07:28:49.502Z,25.7014
2023-04-15T07:29:53.388Z,25.5970
2023-04-15T07:30:57.313Z,25.6142
2023-04-15T07:32:01.202Z,25.6306
2023-04-15T07:33:05.426Z,25.6545
2023-04-15T07:34:09.294Z,25.6449
2023-04-15T07:35:13.172Z,25.6696
2023-04-15T07:36:17.070Z,25.7083
2023-04-15T07:37:20.959Z,25.7230
2023-04-15T07:38:24.853Z,25.7072
2023-04-15T07:39:28.816Z,25.7550
2023-04-15T07:40:32.676Z,25.7199
2023-04-15T07:41:36.616Z,25.7346
2023-04-15T07:42:41.523Z,25.7958
2023-04-15T07:43:45.654Z,25.8323
2023-04-15T07:44:49.525Z,25.7804
2023-04-15T07:45:53.436Z,25.7564
2023-04-15T07:46:57.293Z,25.8007
2023-04-15T07:48:01.470Z,25.7849
2023-04-15T07:49:05.343Z,25.7806
2023-04-15T07:50:09.230Z,25.7590
2023-04-15T07:51:13.175Z,25.7426
2023-04-15T07:52:17.075Z,25.7704
2023-04-15T07:53:20.973Z,25.8425
2023-04-15T07:54:24.869Z,25.8839
2023-04-15T07:55:28.761Z,25.8556
2023-04-15T07:56:32.675Z,25.8930
2023-04-15T07:57:36.542Z,25.9302
2023-04-15T07:58:40.465Z,25.9279
2023-04-15T07:59:44.324Z,25.9219
2023-04-15T08:00:48.482Z,25.9306
2023-04-15T08:01:52.405Z,25.9295
2023-04-15T08:02:56.675Z,25.9108
2023-04-15T08:04:00.783Z,25.9144
2023-04-15T08:05:04.795Z,25.9317
2023-04-15T08:06:08.720Z,25.9302
2023-04-15T08:07:12.610Z,25.9202
2023-04-15T08:08:16.524Z,25.8817
2023-04-15T08:09:20.412Z,25.8817
2023-04-15T08:10:24.424Z,25.8970
2023-04-15T08:11:28.304Z,25.8919
2023-04-15T08:12:32.236Z,25.9119
2023-04-15T08:13:36.124Z,25.9284
2023-04-15T08:14:40.030Z,25.9315
2023-04-15T08:15:43.939Z,25.9219
2023-04-15T08:16:47.833Z,25.8886
2023-04-15T08:17:51.743Z,25.8496
2023-04-15T08:18:55.634Z,25.8474
2023-04-15T08:19:59.516Z,25.8957
2023-04-15T08:21:03.418Z,25.8892
2023-04-15T08:22:10.934Z,25.9515
2023-04-15T08:23:11.794Z,25.9526
2023-04-15T08:24:15.701Z,25.9277
2023-04-15T08:25:19.856Z,25.8532
2023-04-15T08:26:23.733Z,25.8839
2023-04-15T08:27:27.628Z,25.8972
2023-04-15T08:28:31.725Z,25.8567
2023-04-15T08:29:35.612Z,25.7889
2023-04-15T08:30:39.520Z,25.7479
2023-04-15T08:31:43.422Z,25.7165
2023-04-15T08:32:47.590Z,25.7597
2023-04-15T08:33:51.581Z,25.7829
2023-04-15T08:34:55.497Z,25.7424
2023-04-15T08:35:59.381Z,25.8458
2023-04-15T08:37:03.293Z,25.8078
2023-04-15T08:38:07.199Z,25.8512
2023-04-15T08:39:11.114Z,25.8670
2023-04-15T08:40:15.211Z,25.9193
2023-04-15T08:41:19.094Z,25.9193
2023-04-15T08:42:22.980Z,25.8983
2023-04-15T08:43:27.178Z,25.8209
2023-04-15T08:44:31.061Z,25.8654
2023-04-15T08:45:34.964Z,25.8939
2023-04-15T08:46:38.866Z,25.8732
2023-04-15T08:47:42.760Z,25.8712
2023-04-15T08:48:46.643Z,25.9199
2023-04-15T08:49:50.528Z,25.8641
2023-04-15T08:50:54.404Z,25.8358
2023-04-15T08:51:58.310Z,25.9315
2023-04-15T08:53:02.232Z,25.9431
2023-04-15T08:54:06.159Z,25.9230
2023-04-15T08:55:10.657Z,25.9322
2023-04-15T08:56:14.550Z,25.9662
2023-04-15T08:57:18.440Z,25.9475
2023-04-15T08:58:22.573Z,25.9035
2023-04-15T08:59:26.482Z,25.9460
2023-04-15T09:00:30.373Z,25.9202
2023-04-15T09:01:34.376Z,25.8999
2023-04-15T09:02:38.344Z,25.8603
2023-04-15T09:03:42.447Z,25.9095
2023-04-15T09:04:46.369Z,25.9344
2023-04-15T09:05:52.705Z,25.9382
2023-04-15T09:06:51.791Z,25.8683
2023-04-15T09:07:55.715Z,25.9253
2023-04-15T09:08:59.629Z,25.9484
2023-04-15T09:10:03.784Z,25.9542
2023-04-15T09:11:07.701Z,25.9978
2023-04-15T09:12:11.625Z,25.9869
2023-04-15T09:13:15.738Z,25.9288
2023-04-15T09:14:19.648Z,25.8623
2023-04-15T09:15:23.552Z,25.8663
2023-04-15T09:16:27.501Z,25.8963
2023-04-15T09:17:31.446Z,25.8952
2023-04-15T09:18:35.341Z,25.8861
2023-04-15T09:19:39.280Z,25.7711
2023-04-15T09:20:43.144Z,25.7800
2023-04-15T09:21:47.049Z,25.8416
2023-04-15T09:22:50.945Z,25.8866
2023-04-15T09:23:54.853Z,25.8438
2023-04-15T09:24:58.858Z,25.8643
2023-04-15T09:26:02.748Z,25.9141
2023-04-15T09:27:06.631Z,25.9348
2023-04-15T09:28:10.557Z,25.9484
2023-04-15T09:29:14.398Z,25.9315
2023-04-15T09:30:18.302Z,25.8970
2023-04-15T09:31:22.244Z,25.9709
2023-04-15T09:32:26.562Z,25.9377
2023-04-15T09:33:30.447Z,25.9524
2023-04-15T09:34:34.351Z,25.9649
2023-04-15T09:35:38.271Z,25.9048
2023-04-15T09:36:42.154Z,25.9560
2023-04-15T09:37:46.057Z,25.9965
2023-04-15T09:38:49.943Z,26.0056
2023-04-15T09:39:53.854Z,25.9994
2023-04-15T09:40:57.751Z,25.9411
2023-04-15T09:42:01.725Z,25.9208
2023-04-15T09:43:05.852Z,25.9778
2023-04-15T09:44:09.736Z,25.9546
2023-04-15T09:45:13.860Z,25.9404
2023-04-15T09:46:17.780Z,26.0443
2023-04-15T09:47:21.709Z,25.9809
2023-04-15T09:48:25.571Z,25.9805
2023-04-15T09:49:29.522Z,25.9782
2023-04-15T09:50:33.419Z,25.9546
2023-04-15T09:51:37.323Z,25.9558
2023-04-15T09:52:41.243Z,26.0635
2023-04-15T09:53:45.137Z,26.0038
2023-04-15T09:54:49.200Z,26.1295
2023-04-15T09:55:53.114Z,26.1104
2023-04-15T09:56:57.017Z,26.0944
2023-04-15T09:58:00.913Z,26.0701
2023-04-15T09:59:04.820Z,26.1064
2023-04-15T10:00:08.721Z,26.2150
2023-04-15T10:01:12.613Z,26.2263
2023-04-15T10:02:16.626Z,26.2635
2023-04-15T10:03:20.763Z,26.3363
2023-04-15T10:04:25.021Z,26.2842
2023-04-15T10:05:29.831Z,26.1694
2023-04-15T10:06:34.126Z,26.1175
2023-04-15T10:07:38.040Z,26.0655
2023-04-15T10:08:41.952Z,26.0948
2023-04-15T10:09:46.034Z,26.0917
2023-04-15T10:10:49.948Z,25.9969
2023-04-15T10:11:54.112Z,26.0844
2023-04-15T10:12:58.018Z,26.1547
2023-04-15T10:14:02.344Z,26.1787
2023-04-15T10:15:06.366Z,26.1189
2023-04-15T10:16:10.331Z,26.1287
2023-04-15T10:17:14.254Z,26.1333
2023-04-15T10:18:18.152Z,26.0773
2023-04-15T10:19:22.295Z,26.1576
2023-04-15T10:20:26.209Z,26.2717
2023-04-15T10:21:30.086Z,26.2871
2023-04-15T10:22:33.991Z,26.2462
2023-04-15T10:23:37.887Z,26.2014
2023-04-15T10:24:41.787Z,26.1678
2023-04-15T10:25:45.684Z,26.2146
2023-04-15T10:26:49.618Z,26.2183
2023-04-15T10:27:53.480Z,26.2546
2023-04-15T10:28:58.414Z,26.3470
2023-04-15T10:29:58.126Z,26.2526
2023-04-15T10:31:02.048Z,26.3505
2023-04-15T10:32:05.945Z,26.3895
2023-04-15T10:33:09.826Z,26.3705
2023-04-15T10:34:14.015Z,26.2851
2023-04-15T10:35:17.912Z,26.2858
2023-04-15T10:36:21.796Z,26.2548
2023-04-15T10:37:25.668Z,26.3134
2023-04-15T10:38:29.579Z,26.1832
2023-04-15T10:39:33.464Z,26.2457
2023-04-15T10:40:37.354Z,26.2740
2023-04-15T10:41:41.363Z,26.3770
2023-04-15T10:42:45.270Z,26.3278
2023-04-15T10:43:49.160Z,26.3961
2023-04-15T10:44:53.069Z,26.3036
2023-04-15T10:45:56.954Z,26.4171
2023-04-15T10:47:00.954Z,26.4024
2023-04-15T10:48:04.865Z,26.3890
2023-04-15T10:49:08.750Z,26.3670
2023-04-15T10:50:12.909Z,26.1787
2023-04-15T10:51:16.809Z,26.1836
2023-04-15T10:52:20.710Z,26.1253
2023-04-15T10:53:24.598Z,26.1425
2023-04-15T10:54:28.494Z,26.1994
2023-04-15T10:55:32.514Z,26.1776
2023-04-15T10:56:36.676Z,26.2052
2023-04-15T10:57:40.526Z,26.2248
2023-04-15T10:58:44.457Z,26.3394
2023-04-15T10:59:48.564Z,26.3536
2023-04-15T11:00:52.452Z,26.2838
2023-04-15T11:01:56.738Z,26.3294
2023-04-15T11:03:00.971Z,26.3799
2023-04-15T11:04:05.163Z,26.4124
2023-04-15T11:05:09.218Z,26.4015
2023-04-15T11:06:13.112Z,26.3252
2023-04-15T11:07:17.002Z,26.3120
2023-04-15T11:08:20.914Z,26.2290
2023-04-15T11:09:24.765Z,26.2079
2023-04-15T11:10:28.640Z,26.2352
2023-04-15T11:11:32.767Z,26.3009
2023-04-15T11:12:36.696Z,26.3410
2023-04-15T11:13:40.560Z,26.3701
2023-04-15T11:14:44.684Z,26.3668
2023-04-15T11:15:48.561Z,26.3027
2023-04-15T11:16:52.490Z,26.2940
2023-04-15T11:17:56.428Z,26.3970
2023-04-15T11:19:00.376Z,26.4502
2023-04-15T11:20:04.507Z,26.3777
2023-04-15T11:21:08.395Z,26.3788
2023-04-15T11:22:12.286Z,26.4177
2023-04-15T11:23:16.221Z,26.4369
2023-04-15T11:24:20.095Z,26.4433
2023-04-15T11:25:24.228Z,26.5047
2023-04-15T11:26:28.368Z,26.4907
2023-04-15T11:27:32.236Z,26.4729
2023-04-15T11:28:36.806Z,26.4549
2023-04-15T11:29:36.294Z,26.5153
2023-04-15T11:30:40.236Z,26.4943
2023-04-15T11:31:44.137Z,26.5359
2023-04-15T11:32:48.051Z,26.5196
2023-04-15T11:33:51.958Z,26.5817
2023-04-15T11:34:55.845Z,26.5753
2023-04-15T11:35:59.742Z,26.4974
2023-04-15T11:37:03.629Z,26.5248
2023-04-15T11:38:07.523Z,26.5072
2023-04-15T11:39:11.456Z,26.5121
2023-04-15T11:40:15.391Z,26.5579
2023-04-15T11:41:19.237Z,26.6371
2023-04-15T11:42:23.437Z,26.5477
2023-04-15T11:43:27.329Z,26.5470
2023-04-15T11:44:31.468Z,26.4940
2023-04-15T11:45:35.390Z,26.4727
2023-04-15T11:46:39.252Z,26.4943
2023-04-15T11:47:43.192Z,26.5857
2023-04-15T11:48:47.106Z,26.6084
2023-04-15T11:49:50.993Z,26.6006
2023-04-15T11:50:54.904Z,26.6607
2023-04-15T11:51:58.798Z,26.5036
2023-04-15T11:53:02.707Z,26.5203
2023-04-15T11:54:06.720Z,26.4691
2023-04-15T11:55:10.742Z,26.4620
2023-04-15T11:56:14.622Z,26.3708
2023-04-15T11:57:18.756Z,26.4213
2023-04-15T11:58:22.662Z,26.4740
2023-04-15T11:59:38.948Z,26.4627
2023-04-15T12:00:31.255Z,26.5272
2023-04-15T12:01:35.217Z,26.5955
2023-04-15T12:02:39.227Z,26.6336
2023-04-15T12:03:43.276Z,26.6641
2023-04-15T12:04:47.556Z,26.5675
2023-04-15T12:05:51.426Z,26.6371
2023-04-15T12:06:55.338Z,26.6859
2023-04-15T12:07:59.230Z,26.6469
2023-04-15T12:09:03.474Z,26.6122
2023-04-15T12:10:07.348Z,26.5953
2023-04-15T12:11:11.226Z,26.6456
2023-04-15T12:12:15.361Z,26.6959
2023-04-15T12:13:19.244Z,26.6500
2023-04-15T12:14:23.149Z,26.5966
2023-04-15T12:15:27.034Z,26.5261
2023-04-15T12:16:30.933Z,26.5568
2023-04-15T12:17:52.153Z,26.6035
2023-04-15T12:18:39.310Z,26.6823
2023-04-15T12:19:43.420Z,26.6169
2023-04-15T12:20:47.299Z,26.5644
2023-04-15T12:21:51.202Z,26.4856
2023-04-15T12:22:55.086Z,26.4286
2023-04-15T12:23:59.305Z,26.4794
2023-04-15T12:25:03.203Z,26.4151
2023-04-15T12:26:07.087Z,26.4046
2023-04-15T12:27:11.302Z,26.4533
2023-04-15T12:28:15.189Z,26.4700
2023-04-15T12:29:19.139Z,26.4869
2023-04-15T12:30:22.983Z,26.4384
2023-04-15T12:31:26.911Z,26.2944
2023-04-15T12:32:30.799Z,26.2397
2023-04-15T12:33:34.716Z,26.2132
2023-04-15T12:34:38.586Z,26.2895
2023-04-15T12:35:42.489Z,26.4139
2023-04-15T12:36:46.405Z,26.3964
2023-04-15T12:37:50.273Z,26.3946
2023-04-15T12:38:54.421Z,26.3970
2023-04-15T12:39:58.274Z,26.3269
2023-04-15T12:41:02.168Z,26.2862
2023-04-15T12:42:06.080Z,26.3229
2023-04-15T12:43:09.977Z,26.3256
2023-04-15T12:44:13.864Z,26.2853
2023-04-15T12:45:17.777Z,26.2326
2023-04-15T12:46:21.770Z,26.3127
2023-04-15T12:47:25.756Z,26.2219
2023-04-15T12:48:29.656Z,26.2036
2023-04-15T12:49:33.601Z,26.2786
2023-04-15T12:50:37.508Z,26.2793
2023-04-15T12:51:41.395Z,26.3612
2023-04-15T12:52:45.303Z,26.3995
2023-04-15T12:53:49.413Z,26.2989